Time;durP1;ratioP1;P1;durP2;ratioP2;P2;SDS_P1;SDS_P2;PMS_P1;PMS_P2;Temp;Humidity;BMP_temperature;BMP_pressure;BME280_temperature;BME280_humidity;BME280_pressure;Samples;Min_cycle;Max_cycle;Signal;HPM_P1;HPM_P2
2022/06/17 00:00:15;;;;;;;2.87;0.60;;;;;;;22.38;40.96;102285.66;16133144;19;130538;-57
2022/06/17 00:05:37;;;;;;;1.35;0.73;;;;;;;22.40;40.67;102277.03;16136743;19;130572;-57
2022/06/17 00:10:59;;;;;;;3.20;0.70;;;;;;;22.41;40.53;102289.91;16136984;19;129439;-58
2022/06/17 00:16:23;;;;;;;0.95;0.68;;;;;;;22.43;40.82;102280.19;16132128;19;129651;-58
2022/06/17 00:21:50;;;;;;;1.92;0.60;;;;;;;22.44;40.89;102273.53;16135910;19;131202;-56
2022/06/17 00:27:12;;;;;;;0.70;0.50;;;;;;;22.44;40.86;102273.53;16137631;19;129782;-56
2022/06/17 00:32:34;;;;;;;1.17;0.70;;;;;;;22.46;40.75;102273.31;16134028;19;129901;-58
2022/06/17 00:37:56;;;;;;;1.45;0.60;;;;;;;22.47;40.78;102279.72;16127392;19;130549;-58
2022/06/17 00:43:35;;;;;;;1.55;0.50;;;;;;;22.49;40.56;102272.81;16133783;19;129953;-57
2022/06/17 00:49:02;;;;;;;1.40;0.70;;;;;;;22.50;40.43;102282.03;16142112;19;129330;-56
2022/06/17 00:54:30;;;;;;;2.05;0.50;;;;;;;22.48;40.69;102279.47;16149375;19;129728;-56
2022/06/17 01:00:11;;;;;;;0.73;0.40;;;;;;;22.47;40.66;102283.34;16150581;19;129938;-56
2022/06/17 01:05:42;;;;;;;0.77;0.40;;;;;;;22.44;40.30;102283.84;16148330;19;129818;-56
2022/06/17 01:11:07;;;;;;;0.88;0.50;;;;;;;22.41;40.40;102276.78;16151192;19;129433;-56
2022/06/17 01:16:32;;;;;;;1.43;0.60;;;;;;;22.38;40.50;102277.31;16145381;19;129746;-56
2022/06/17 01:22:33;;;;;;;4.40;0.50;;;;;;;22.36;40.36;102264.66;16149644;19;128967;-57
2022/06/17 01:27:58;;;;;;;0.82;0.50;;;;;;;22.33;40.60;102277.16;16149831;19;129020;-56
2022/06/17 01:33:22;;;;;;;3.08;0.50;;;;;;;22.30;40.38;102272.06;16147603;19;129653;-57
2022/06/17 01:38:48;;;;;;;6.30;0.60;;;;;;;22.28;40.25;102269.50;16148019;19;129847;-56
2022/06/17 01:44:15;;;;;;;;;;;;;;;22.23;40.55;102261.00;16146365;19;129012;-56
2022/06/17 01:50:00;;;;;;;1.75;0.50;;;;;;;22.25;40.37;102269.97;16150209;19;130154;-56
2022/06/17 01:55:35;;;;;;;0.82;0.52;;;;;;;22.23;40.38;102272.16;16139651;19;131225;-56
2022/06/17 02:00:58;;;;;;;0.95;0.70;;;;;;;22.20;40.48;102266.19;16143400;19;129918;-56
2022/06/17 02:06:43;;;;;;;2.40;0.50;;;;;;;22.20;40.72;102255.91;16148296;19;129488;-54
2022/06/17 02:12:06;;;;;;;1.52;0.50;;;;;;;22.18;40.31;102266.44;16145332;19;130155;-57
2022/06/17 02:17:31;;;;;;;0.57;0.38;;;;;;;22.17;40.74;102273.09;16146445;19;129951;-56
2022/06/17 02:22:56;;;;;;;0.90;0.65;;;;;;;22.16;40.49;102276.09;16143394;19;130675;-57
2022/06/17 02:28:21;;;;;;;1.75;0.68;;;;;;;22.14;40.64;102259.63;16144314;19;129857;-57
2022/06/17 02:33:51;;;;;;;0.63;0.55;;;;;;;22.15;40.48;102274.44;16143353;19;129373;-56
2022/06/17 02:39:14;;;;;;;0.60;0.40;;;;;;;22.13;40.23;102266.28;16141792;19;130213;-56
2022/06/17 02:44:41;;;;;;;1.75;0.40;;;;;;;22.13;40.26;102271.84;16141083;19;131709;-57
2022/06/17 02:50:04;;;;;;;0.40;0.40;;;;;;;22.11;40.71;102268.44;16143805;19;128871;-57
2022/06/17 02:55:33;;;;;;;0.60;0.30;;;;;;;22.10;40.43;102264.81;16140432;19;129682;-57
2022/06/17 03:00:57;;;;;;;0.80;0.45;;;;;;;22.09;40.72;102259.50;16143767;19;129541;-57
2022/06/17 03:06:27;;;;;;;0.77;0.40;;;;;;;22.08;40.25;102263.38;16136640;19;131717;-56
2022/06/17 03:12:20;;;;;;;1.02;0.50;;;;;;;22.08;40.73;102264.22;16137486;19;130021;-56
2022/06/17 03:17:44;;;;;;;2.15;0.40;;;;;;;22.06;40.73;102269.16;16139717;19;129813;-55
2022/06/17 03:23:17;;;;;;;1.27;0.50;;;;;;;22.06;40.71;102269.16;16142298;19;128869;-56
2022/06/17 03:28:42;;;;;;;1.00;0.43;;;;;;;22.04;40.47;102267.72;16141721;19;129107;-57
2022/06/17 03:34:08;;;;;;;0.82;0.52;;;;;;;22.04;40.48;102264.94;16139721;19;130150;-57
2022/06/17 03:39:41;;;;;;;2.28;0.30;;;;;;;22.03;40.43;102280.78;16142427;19;129357;-57
2022/06/17 03:45:06;;;;;;;1.98;0.55;;;;;;;22.03;40.75;102288.31;16138695;19;129503;-56
2022/06/17 03:50:37;;;;;;;1.10;0.65;;;;;;;22.02;40.32;102281.91;16137913;19;129084;-57
2022/06/17 03:56:16;;;;;;;2.05;0.55;;;;;;;22.01;40.58;102285.75;16134282;19;129880;-54
2022/06/17 04:01:48;;;;;;;1.63;0.60;;;;;;;22.00;40.68;102295.22;16140816;19;129039;-55
2022/06/17 04:07:12;;;;;;;0.63;0.32;;;;;;;21.99;40.74;102285.16;16139904;19;130295;-57
2022/06/17 04:12:34;;;;;;;1.77;0.55;;;;;;;21.97;40.34;102265.84;16139416;19;130770;-57
2022/06/17 04:17:56;;;;;;;0.52;0.25;;;;;;;21.97;40.50;102256.66;16138747;19;129524;-56
2022/06/17 04:23:25;;;;;;;0.65;0.30;;;;;;;21.97;40.55;102248.31;16134040;19;128842;-56
2022/06/17 04:28:48;;;;;;;0.50;0.40;;;;;;;21.96;40.75;102249.38;16138953;19;129707;-56
2022/06/17 04:34:13;;;;;;;0.73;0.40;;;;;;;21.96;40.45;102250.25;16135336;19;129822;-53
2022/06/17 04:39:47;;;;;;;3.10;0.60;;;;;;;21.95;40.35;102254.13;16138260;19;132091;-56
2022/06/17 04:45:29;;;;;;;0.95;0.57;;;;;;;21.96;40.24;102257.75;16134062;19;129966;-57
2022/06/17 04:50:51;;;;;;;0.40;0.40;;;;;;;21.94;40.68;102240.41;16137761;19;130052;-56
2022/06/17 04:56:27;;;;;;;0.63;0.30;;;;;;;21.94;40.56;102235.72;16130168;19;130070;-55
2022/06/17 05:01:49;;;;;;;2.30;0.40;;;;;;;21.93;40.47;102247.94;16136963;19;128917;-56
2022/06/17 05:07:11;;;;;;;0.40;0.40;;;;;;;21.93;40.52;102252.63;16135841;19;128890;-57
2022/06/17 05:13:05;;;;;;;0.85;0.30;;;;;;;21.92;40.52;102257.38;16134233;19;131054;-56
2022/06/17 05:18:27;;;;;;;0.30;0.30;;;;;;;21.92;40.36;102262.94;16135281;19;131010;-56
2022/06/17 05:23:52;;;;;;;0.40;0.30;;;;;;;21.93;40.60;102261.00;16135567;19;129039;-57
2022/06/17 05:29:14;;;;;;;0.57;0.30;;;;;;;21.91;40.67;102252.06;16133290;19;129895;-56
2022/06/17 05:34:36;;;;;;;0.40;0.30;;;;;;;21.91;40.84;102232.56;16139385;19;129970;-56
2022/06/17 05:39:58;;;;;;;0.20;0.20;;;;;;;21.91;40.82;102221.41;16149527;19;128948;-56
2022/06/17 05:45:23;;;;;;;1.00;0.32;;;;;;;21.90;40.61;102230.84;16149075;19;128832;-56
2022/06/17 05:50:44;;;;;;;0.45;0.32;;;;;;;21.90;40.27;102228.06;16147453;19;130675;-56
2022/06/17 05:56:06;;;;;;;0.60;0.25;;;;;;;21.89;40.38;102218.84;16146465;19;129911;-56
2022/06/17 06:01:28;;;;;;;2.80;0.30;;;;;;;21.92;40.72;102211.94;16151041;19;129398;-57
2022/06/17 06:06:51;;;;;;;0.35;0.22;;;;;;;21.91;40.54;102201.91;16150644;19;129157;-57
2022/06/17 06:12:12;;;;;;;0.32;0.30;;;;;;;21.91;40.63;102204.69;16151875;19;129251;-57
2022/06/17 06:17:35;;;;;;;0.50;0.40;;;;;;;21.90;40.48;102209.41;16148163;19;128848;-57
2022/06/17 06:22:57;;;;;;;0.30;0.30;;;;;;;21.91;40.81;102219.44;16152077;19;129431;-56
2022/06/17 06:28:24;;;;;;;0.77;0.30;;;;;;;21.91;40.73;102230.59;16155913;19;130381;-55
2022/06/17 06:33:45;;;;;;;1.48;0.75;;;;;;;21.93;40.36;102227.56;16168390;19;130354;-54
2022/06/17 06:39:07;;;;;;;0.63;0.40;;;;;;;21.96;40.21;102232.66;16170532;19;129640;-56
2022/06/17 06:44:29;;;;;;;0.90;0.73;;;;;;;22.01;40.25;102230.03;16169207;19;129586;-55
2022/06/17 06:49:51;;;;;;;2.58;0.90;;;;;;;22.06;40.35;102237.69;16173573;19;129033;-56
2022/06/17 06:55:13;;;;;;;7.00;1.70;;;;;;;22.13;40.12;102233.69;16165272;19;129842;-55
2022/06/17 07:00:46;;;;;;;5.32;1.50;;;;;;;22.22;39.47;102230.59;16176011;19;129984;-54
2022/06/17 07:06:08;;;;;;;2.30;1.10;;;;;;;22.27;39.45;102222.38;16170594;19;129974;-56
2022/06/17 07:11:30;;;;;;;3.95;1.73;;;;;;;22.33;39.68;102218.59;16174052;19;130826;-56
2022/06/17 07:16:52;;;;;;;4.65;1.40;;;;;;;22.42;39.58;102239.47;16183367;19;130515;-56
2022/06/17 07:22:14;;;;;;;4.47;1.42;;;;;;;22.50;39.77;102240.22;16180947;19;128774;-57
2022/06/17 07:27:36;;;;;;;7.95;1.60;;;;;;;22.57;39.55;102235.34;16219674;19;128810;-52
2022/06/17 07:32:58;;;;;;;2.90;1.10;;;;;;;22.65;39.67;102239.72;16222677;19;129166;-59
2022/06/17 07:44:04;;;;;;;3.05;1.45;;;;;;;22.68;39.56;102234.50;16219027;19;128550;-59
2022/06/17 07:49:26;;;;;;;4.60;1.45;;;;;;;22.67;39.41;102243.97;16223987;19;129096;-59
2022/06/17 07:54:47;;;;;;;6.38;1.45;;;;;;;22.67;39.68;102240.34;16221087;19;128908;-57
2022/06/17 08:00:24;;;;;;;4.90;1.65;;;;;;;22.67;39.95;102229.19;16221783;19;128862;-59
2022/06/17 08:05:51;;;;;;;3.45;1.45;;;;;;;22.67;39.72;102231.97;16221816;19;128167;-57
2022/06/17 08:11:13;;;;;;;2.78;1.23;;;;;;;22.67;39.91;102221.66;16222704;19;129821;-59
2022/06/17 08:16:35;;;;;;;3.67;1.00;;;;;;;22.68;39.94;102212.19;16217705;19;129343;-56
2022/06/17 08:21:57;;;;;;;3.03;1.23;;;;;;;22.68;39.98;102217.78;16222653;19;128372;-56
2022/06/17 08:27:19;;;;;;;2.15;1.20;;;;;;;22.68;39.81;102225.31;16221701;19;129145;-55
2022/06/17 08:32:55;;;;;;;5.65;1.33;;;;;;;22.69;39.69;102249.31;16222204;19;128537;-57
2022/06/17 08:38:23;;;;;;;3.63;1.40;;;;;;;22.68;39.45;102240.09;16220792;19;128389;-56
2022/06/17 08:43:56;;;;;;;3.00;1.40;;;;;;;22.68;39.71;102240.09;16220136;19;129280;-56
2022/06/17 08:49:36;;;;;;;5.50;1.80;;;;;;;22.66;39.91;102228.31;16219849;19;128249;-58
2022/06/17 08:55:01;;;;;;;10.82;2.85;;;;;;;22.67;39.57;102227.22;16210696;19;129432;-56
2022/06/17 09:00:41;;;;;;;11.03;3.13;;;;;;;22.70;39.49;102210.00;16136911;19;130385;-56
2022/06/17 09:06:15;;;;;;;12.35;3.03;;;;;;;22.72;39.11;102213.41;16132096;19;132449;-57
2022/06/17 09:11:51;;;;;;;8.38;2.72;;;;;;;22.73;39.03;102211.47;16149223;19;129177;-56
2022/06/17 09:17:46;;;;;;;15.43;2.45;;;;;;;22.73;38.75;102220.69;16143038;19;129249;-56
2022/06/17 09:23:11;;;;;;;4.85;2.10;;;;;;;22.74;38.58;102222.41;16144891;19;130359;-53
2022/06/17 09:28:38;;;;;;;7.00;2.03;;;;;;;22.76;38.61;102229.69;16145214;19;131002;-53
2022/06/17 09:34:11;;;;;;;4.55;1.83;;;;;;;22.77;38.18;102220.22;16144056;19;130435;-54
2022/06/17 09:39:51;;;;;;;4.10;1.85;;;;;;;22.76;38.38;102215.72;16146635;19;129433;-55
2022/06/17 09:45:39;;;;;;;7.10;2.10;;;;;;;22.78;37.82;102208.81;16147996;19;129884;-54
2022/06/17 09:51:08;;;;;;;5.88;1.90;;;;;;;22.78;37.84;102217.16;16151320;19;129336;-55
2022/06/17 09:56:47;;;;;;;10.45;1.85;;;;;;;22.81;37.38;102210.25;16145230;19;133098;-53
2022/06/17 10:02:17;;;;;;;3.08;1.65;;;;;;;22.82;37.43;102206.38;16150187;19;130258;-53
2022/06/17 10:07:54;;;;;;;2.58;1.33;;;;;;;22.83;37.20;102191.31;16147609;19;129438;-55
2022/06/17 10:13:55;;;;;;;7.43;1.20;;;;;;;22.83;36.99;102191.31;16145910;19;131666;-53
2022/06/17 10:19:26;;;;;;;3.42;1.38;;;;;;;22.83;36.89;102203.31;16141202;19;129459;-54
2022/06/17 10:24:50;;;;;;;2.67;1.40;;;;;;;22.84;36.93;102199.44;16146910;19;129075;-53
2022/06/17 10:30:39;;;;;;;4.97;1.77;;;;;;;22.84;36.63;102199.44;16145604;19;129577;-53
2022/06/17 10:36:03;;;;;;;4.72;1.50;;;;;;;22.86;36.77;102193.63;16138732;19;130006;-52
2022/06/17 10:41:25;;;;;;;4.57;1.50;;;;;;;22.87;36.50;102184.19;16146401;19;130873;-53
2022/06/17 10:47:13;;;;;;;4.13;1.58;;;;;;;22.89;36.61;102180.03;16138443;19;130523;-55
2022/06/17 10:52:43;;;;;;;4.07;1.20;;;;;;;22.93;36.56;102180.41;16143134;19;129919;-54
2022/06/17 10:58:10;;;;;;;4.03;1.08;;;;;;;22.95;36.69;102169.03;16137552;19;129971;-53
2022/06/17 11:03:34;;;;;;;5.10;1.48;;;;;;;22.95;37.19;102167.06;16141840;19;129382;-55
2022/06/17 11:09:03;;;;;;;4.00;1.40;;;;;;;22.99;37.52;102153.47;16144586;19;130097;-55
2022/06/17 11:14:48;;;;;;;6.90;1.48;;;;;;;23.04;37.10;102142.44;16141760;19;128754;-54
2022/06/17 11:20:16;;;;;;;7.55;1.42;;;;;;;23.09;37.00;102138.88;16142342;19;128954;-55
2022/06/17 11:26:25;;;;;;;5.00;1.25;;;;;;;23.10;36.95;102141.41;16142045;19;129880;-53
2022/06/17 11:31:49;;;;;;;3.05;1.00;;;;;;;23.06;37.05;102140.25;16143349;19;130055;-53
2022/06/17 11:37:21;;;;;;;5.95;1.10;;;;;;;23.05;36.78;102133.78;16139459;19;129605;-53
2022/06/17 11:42:50;;;;;;;5.53;1.27;;;;;;;23.05;37.21;102122.63;16143008;19;130802;-54
2022/06/17 11:48:13;;;;;;;5.05;1.33;;;;;;;23.02;37.02;102122.28;16136823;19;130222;-51
2022/06/17 11:53:49;;;;;;;13.15;1.58;;;;;;;23.02;36.93;102123.13;16143001;19;129249;-55
2022/06/17 11:59:21;;;;;;;4.30;1.15;;;;;;;23.01;37.23;102115.88;16141618;19;129751;-53
2022/06/17 12:04:47;;;;;;;3.05;1.10;;;;;;;22.99;37.25;102106.88;16142380;19;129327;-53
2022/06/17 12:10:31;;;;;;;1.52;0.98;;;;;;;22.99;37.28;102108.81;16142913;19;131252;-54
2022/06/17 12:16:00;;;;;;;2.63;1.20;;;;;;;22.97;37.72;102099.84;16137647;19;128806;-54
2022/06/17 12:21:24;;;;;;;1.40;0.90;;;;;;;22.96;37.36;102096.22;16140803;19;131232;-53
2022/06/17 12:26:52;;;;;;;1.63;0.70;;;;;;;22.96;37.50;102096.22;16141061;19;129085;-53
2022/06/17 12:32:30;;;;;;;1.98;0.95;;;;;;;22.99;37.93;102097.66;16139500;19;129335;-54
2022/06/17 12:38:42;;;;;;;2.45;0.98;;;;;;;22.95;37.60;102088.94;16135816;19;131496;-54
2022/06/17 12:44:22;;;;;;;1.13;0.85;;;;;;;22.97;37.56;102089.53;16136136;19;131097;-51
2022/06/17 12:55:55;;;;;;;3.35;0.73;;;;;;;22.99;38.00;102069.75;16141261;19;129312;-55
2022/06/17 13:01:39;;;;;;;5.28;1.10;;;;;;;22.99;38.06;102056.66;16142946;19;130042;-54
2022/06/17 13:07:37;;;;;;;5.50;1.17;;;;;;;23.01;38.35;102060.06;16144083;19;129241;-53
2022/06/17 13:13:15;;;;;;;4.05;1.00;;;;;;;23.01;38.73;102043.31;16147029;19;130131;-55
2022/06/17 13:18:48;;;;;;;3.55;1.27;;;;;;;23.02;38.68;102038.56;16146256;19;129436;-52
2022/06/17 13:24:51;;;;;;;6.70;1.10;;;;;;;23.03;39.00;102035.50;16150908;19;131472;-54
2022/06/17 13:30:30;;;;;;;5.78;1.00;;;;;;;23.06;38.72;102025.81;16147579;19;128799;-55
2022/06/17 13:35:57;;;;;;;4.40;0.98;;;;;;;23.07;38.85;102019.13;16144629;19;129175;-56
2022/06/17 13:41:38;;;;;;;9.73;1.17;;;;;;;23.10;39.10;102001.84;16148291;19;129919;-56
2022/06/17 13:47:28;;;;;;;5.00;1.02;;;;;;;23.15;39.07;102009.47;16140069;19;129847;-52
2022/06/17 13:52:57;;;;;;;7.53;1.00;;;;;;;23.18;39.11;102025.72;16150634;19;129597;-55
2022/06/17 13:58:50;;;;;;;4.10;0.95;;;;;;;23.22;39.00;101998.16;16142878;19;129716;-57
2022/06/17 14:04:20;;;;;;;0.70;0.60;;;;;;;23.27;38.94;102004.66;16147247;19;129491;-58
2022/06/17 14:09:46;;;;;;;2.33;1.20;;;;;;;23.30;38.82;101995.81;16149443;19;129021;-58
2022/06/17 14:15:13;;;;;;;4.47;1.00;;;;;;;23.35;38.89;102003.41;16146152;19;129619;-55
2022/06/17 14:20:41;;;;;;;2.28;0.80;;;;;;;23.39;38.81;101998.16;16143437;19;129466;-55
2022/06/17 14:26:02;;;;;;;5.15;0.85;;;;;;;23.39;38.95;101987.84;16143109;19;129384;-53
2022/06/17 14:31:24;;;;;;;2.03;0.90;;;;;;;23.44;38.72;101987.09;16144230;19;129647;-56
2022/06/17 14:36:48;;;;;;;2.13;1.00;;;;;;;23.46;38.85;101979.31;16142671;19;130272;-55
2022/06/17 14:42:19;;;;;;;1.40;0.90;;;;;;;23.49;38.80;101964.84;16147018;19;129686;-56
2022/06/17 14:47:44;;;;;;;3.80;0.98;;;;;;;23.51;38.91;101962.63;16140722;19;129574;-53
2022/06/17 14:53:11;;;;;;;;;;;;;;;23.49;38.85;101970.44;16140651;19;129928;-53
2022/06/17 14:58:52;;;;;;;4.43;0.93;;;;;;;23.54;38.47;101955.69;16137387;19;129435;-54
2022/06/17 15:04:30;;;;;;;3.63;0.80;;;;;;;23.55;38.72;101955.44;16140805;19;132063;-55
2022/06/17 15:10:24;;;;;;;2.92;0.90;;;;;;;23.58;38.93;101941.00;16141449;19;129244;-53
2022/06/17 15:15:46;;;;;;;8.75;1.17;;;;;;;23.57;38.96;101933.69;16134480;19;131089;-53
2022/06/17 15:21:19;;;;;;;5.15;1.08;;;;;;;23.60;38.92;101929.56;16140192;19;129455;-54
2022/06/17 15:26:58;;;;;;;4.57;0.95;;;;;;;23.62;39.44;101919.84;16139205;19;129138;-55
2022/06/17 15:32:20;;;;;;;14.60;1.40;;;;;;;23.63;39.46;101920.66;16137083;19;129885;-54
2022/06/17 15:37:52;;;;;;;5.55;1.10;;;;;;;23.64;39.30;101914.81;16135722;19;128962;-55
2022/06/17 15:43:21;;;;;;;4.88;1.00;;;;;;;23.66;38.94;101915.41;16138862;19;130220;-52
2022/06/17 15:48:43;;;;;;;7.47;1.58;;;;;;;23.66;39.22;101906.19;16133175;19;129465;-58
2022/06/17 15:54:06;;;;;;;12.73;1.40;;;;;;;23.69;39.57;101913.22;16138137;19;131002;-58
2022/06/17 15:59:31;;;;;;;7.03;1.30;;;;;;;23.75;39.79;101903.81;16127187;19;129936;-53
2022/06/17 16:05:04;;;;;;;8.45;1.50;;;;;;;23.80;39.42;101903.88;16135976;19;130388;-52
2022/06/17 16:10:38;;;;;;;8.05;1.42;;;;;;;23.85;39.12;101903.94;16138026;19;129040;-54
2022/06/17 16:16:20;;;;;;;4.20;1.30;;;;;;;23.88;38.66;101897.00;16135985;19;129497;-56
2022/06/17 16:21:46;;;;;;;7.55;1.17;;;;;;;23.90;38.01;101892.81;16138466;19;129494;-53
2022/06/17 16:27:20;;;;;;;3.13;1.00;;;;;;;23.94;38.04;101888.41;16138551;19;129982;-54
2022/06/17 16:33:09;;;;;;;7.03;1.17;;;;;;;23.95;37.96;101878.94;16136013;19;130505;-56
2022/06/17 16:38:50;;;;;;;3.70;1.02;;;;;;;23.96;37.62;101880.63;16130369;19;129227;-58
2022/06/17 16:44:15;;;;;;;4.63;0.98;;;;;;;23.97;38.11;101876.72;16134756;19;128909;-55
2022/06/17 16:49:40;;;;;;;5.80;1.20;;;;;;;24.00;38.38;101863.34;16133017;19;129448;-56
2022/06/17 16:55:04;;;;;;;4.35;1.10;;;;;;;23.99;38.53;101858.84;16136630;19;129468;-56
2022/06/17 17:00:32;;;;;;;5.80;1.45;;;;;;;23.97;38.40;101854.38;16136768;19;131918;-52
2022/06/17 17:05:55;;;;;;;3.60;1.33;;;;;;;23.97;38.79;101854.38;16136836;19;129136;-54
2022/06/17 17:11:18;;;;;;;4.05;1.10;;;;;;;23.95;38.35;101856.56;16136688;19;129311;-54
2022/06/17 17:16:41;;;;;;;5.80;0.98;;;;;;;23.94;38.55;101842.84;16133553;19;129576;-54
2022/06/17 17:22:06;;;;;;;2.45;1.00;;;;;;;23.91;38.64;101840.59;16133414;19;129591;-55
2022/06/17 17:27:30;;;;;;;4.40;1.40;;;;;;;23.90;38.71;101842.53;16136003;19;130790;-53
2022/06/17 17:32:51;;;;;;;5.65;0.90;;;;;;;23.87;38.57;101823.50;16149961;19;129830;-53
2022/06/17 17:38:13;;;;;;;7.22;1.17;;;;;;;23.88;38.83;101827.13;16147387;19;129823;-54
2022/06/17 17:43:35;;;;;;;5.88;1.10;;;;;;;23.89;39.23;101824.06;16150744;19;130223;-54
2022/06/17 17:48:58;;;;;;;8.07;1.58;;;;;;;23.90;39.37;101831.34;16149174;19;129264;-53
2022/06/17 17:54:23;;;;;;;8.13;1.00;;;;;;;23.92;39.58;101834.72;16148675;19;129245;-52
2022/06/17 17:59:46;;;;;;;7.70;1.10;;;;;;;23.93;39.68;101844.81;16139351;19;129542;-53
2022/06/17 18:05:09;;;;;;;6.75;1.00;;;;;;;23.93;39.50;101846.78;16145901;19;129658;-54
2022/06/17 18:10:35;;;;;;;6.03;1.00;;;;;;;23.94;39.70;101843.69;16145046;19;131350;-56
2022/06/17 18:15:57;;;;;;;6.45;1.10;;;;;;;23.92;39.56;101847.88;16139966;19;130993;-52
2022/06/17 18:21:22;;;;;;;6.82;0.80;;;;;;;23.89;39.88;101840.81;16141478;19;129419;-52
2022/06/17 18:26:51;;;;;;;7.63;0.98;;;;;;;23.87;39.91;101851.44;16137400;19;128961;-55
2022/06/17 18:32:16;;;;;;;7.40;0.93;;;;;;;23.85;40.19;101864.81;16145190;19;131189;-55
2022/06/17 18:37:38;;;;;;;;;;;;;;;23.81;40.71;101856.13;16143591;19;129488;-54
2022/06/17 18:43:00;;;;;;;6.00;1.05;;;;;;;23.85;40.08;101861.16;16142032;19;129164;-55
2022/06/17 18:48:25;;;;;;;11.27;1.05;;;;;;;23.85;40.19;101850.00;16142159;19;130235;-55
2022/06/17 18:53:46;;;;;;;5.85;1.00;;;;;;;23.83;40.50;101855.84;16144183;19;129758;-55
2022/06/17 18:59:10;;;;;;;11.50;1.13;;;;;;;23.84;40.56;101854.75;16141023;19;130889;-52
2022/06/17 19:04:32;;;;;;;10.77;1.13;;;;;;;23.84;40.75;101849.16;16144902;19;129994;-53
2022/06/17 19:21:17;;;;;;;12.60;1.65;;;;;;;23.77;40.72;101837.31;16144024;19;130150;-56
2022/06/17 19:26:39;;;;;;;15.80;1.20;;;;;;;23.75;40.60;101836.75;16140779;19;129245;-54
2022/06/17 19:32:01;;;;;;;10.27;1.00;;;;;;;23.72;40.66;101834.47;16144355;19;130084;-53
2022/06/17 19:37:23;;;;;;;12.20;1.33;;;;;;;23.70;40.74;101831.94;16140975;19;128994;-51
2022/06/17 19:42:44;;;;;;;7.75;1.00;;;;;;;23.66;40.69;101820.44;16142859;19;129484;-55
2022/06/17 19:48:19;;;;;;;4.65;0.65;;;;;;;23.64;40.72;101822.63;16138417;19;129062;-50
2022/06/17 19:53:41;;;;;;;4.05;0.80;;;;;;;23.60;40.90;101821.47;16140254;19;129085;-54
2022/06/17 19:59:05;;;;;;;7.63;1.33;;;;;;;23.58;40.73;101818.09;16135694;19;129252;-54
2022/06/17 20:04:33;;;;;;;7.82;0.95;;;;;;;23.56;41.12;101820.28;16140517;19;129749;-54
2022/06/17 20:09:56;;;;;;;13.65;1.60;;;;;;;23.54;41.63;101816.06;16138685;19;130032;-53
2022/06/17 20:15:21;;;;;;;14.38;1.40;;;;;;;23.57;42.22;101816.38;16133982;19;129350;-55
2022/06/17 20:20:43;;;;;;;13.18;1.35;;;;;;;23.61;42.29;101816.72;16132852;19;129338;-52
2022/06/17 20:26:06;;;;;;;18.90;2.17;;;;;;;23.64;42.36;101816.22;16141515;19;129558;-54
2022/06/17 20:31:28;;;;;;;14.02;1.85;;;;;;;23.67;42.30;101815.72;16140103;19;129227;-54
2022/06/17 20:36:51;;;;;;;11.50;1.30;;;;;;;23.69;42.47;101818.22;16138119;19;129344;-55
2022/06/17 20:42:20;;;;;;;9.57;1.45;;;;;;;23.72;42.44;101820.50;16137653;19;129292;-51
2022/06/17 20:53:23;;;;;;;5.75;1.25;;;;;;;23.72;42.14;101818.53;16138277;19;129884;-54
2022/06/17 20:58:45;;;;;;;7.88;1.38;;;;;;;23.71;42.55;101822.44;16134368;19;130282;-55
2022/06/17 21:04:07;;;;;;;9.85;1.73;;;;;;;23.71;42.62;101810.44;16141695;19;129629;-55
2022/06/17 21:09:36;;;;;;;9.13;1.50;;;;;;;23.71;42.37;101821.63;16153441;19;129053;-54
2022/06/17 21:14:58;;;;;;;14.38;1.42;;;;;;;23.71;42.51;101810.44;16148997;19;129439;-55
2022/06/17 21:20:20;;;;;;;7.18;1.20;;;;;;;23.68;42.55;101811.81;16147598;19;129445;-54
2022/06/17 21:25:42;;;;;;;12.73;1.42;;;;;;;23.68;42.48;101794.19;16150675;19;129368;-53
2022/06/17 21:31:04;;;;;;;5.82;1.25;;;;;;;23.69;42.30;101790.28;16149738;19;130401;-54
2022/06/17 21:36:30;;;;;;;10.10;1.17;;;;;;;23.69;42.63;101799.53;16148818;19;129214;-55
2022/06/17 21:41:57;;;;;;;10.82;1.38;;;;;;;23.68;42.61;101794.19;16144538;19;129823;-55
2022/06/17 21:47:19;;;;;;;8.60;1.40;;;;;;;23.66;42.73;101791.66;16142473;19;129681;-54
2022/06/17 21:52:42;;;;;;;3.28;1.20;;;;;;;23.63;42.68;101786.59;16146764;19;129942;-55
2022/06/17 21:58:05;;;;;;;4.97;1.08;;;;;;;23.60;42.77;101787.97;16144634;19;129556;-52
2022/06/17 22:03:27;;;;;;;4.13;1.02;;;;;;;23.58;42.53;101790.16;16141859;19;128954;-55
2022/06/17 22:08:52;;;;;;;5.88;1.30;;;;;;;23.58;42.56;101789.28;16146644;19;128966;-52
2022/06/17 22:14:19;;;;;;;3.70;1.20;;;;;;;23.56;42.18;101783.13;16145957;19;129186;-54
2022/06/17 22:19:43;;;;;;;5.53;0.95;;;;;;;23.55;42.13;101785.06;16143290;19;129533;-55
2022/06/17 22:25:17;;;;;;;5.80;1.13;;;;;;;23.54;42.27;101791.75;16141964;19;130054;-56
2022/06/17 22:30:40;;;;;;;8.23;1.35;;;;;;;23.51;42.55;101784.75;16145673;19;130285;-56
2022/06/17 22:36:09;;;;;;;4.82;0.98;;;;;;;23.50;42.38;101785.00;16144936;19;129531;-57
2022/06/17 22:41:31;;;;;;;5.63;1.25;;;;;;;23.49;42.34;101786.09;16140744;19;134144;-56
2022/06/17 22:46:53;;;;;;;4.78;0.93;;;;;;;23.49;42.20;101786.94;16140912;19;129574;-55
2022/06/17 22:52:17;;;;;;;4.80;0.93;;;;;;;23.48;42.32;101784.41;16143890;19;130395;-55
2022/06/17 22:57:38;;;;;;;4.95;0.90;;;;;;;23.46;42.41;101786.63;16143353;19;130067;-56
2022/06/17 23:08:44;;;;;;;2.00;0.80;;;;;;;23.43;42.43;101781.53;16145992;19;129257;-55
2022/06/17 23:14:14;;;;;;;2.00;0.80;;;;;;;23.43;42.53;101787.13;16144891;19;129797;-56
2022/06/17 23:25:27;;;;;;;4.93;0.93;;;;;;;23.41;42.37;101773.44;16145420;19;130268;-55
2022/06/17 23:30:51;;;;;;;3.15;0.93;;;;;;;23.39;42.50;101780.34;16144729;19;130503;-55
2022/06/17 23:36:20;;;;;;;1.42;0.70;;;;;;;23.38;42.45;101768.38;16143379;19;129515;-55
2022/06/17 23:41:42;;;;;;;2.75;0.60;;;;;;;23.37;42.14;101771.44;16134230;19;129659;-56
2022/06/17 23:47:04;;;;;;;3.55;0.70;;;;;;;23.37;42.17;101771.44;16137128;19;128948;-56
2022/06/17 23:52:32;;;;;;;3.42;0.77;;;;;;;23.38;42.15;101773.13;16141786;19;130235;-55
2022/06/17 23:57:54;;;;;;;2.17;0.60;;;;;;;23.35;42.31;101769.72;16136706;19;129013;-54
